Cedar City, Utah Weather observations

Data are for observation ending at time listed.
 Day   Time    Ave.   Ave.  Ave.  Vector   Max.   Stn.    Total    Solar   Ave.  
  of    of     Air    Rel.  Wind   Wind    Wind   Baro.  Precip.   Rad.    Soil  
Year   Day     Temp.  Hum.  Speed  Dir.    Gust   Pres.                    Temp. 
2014   (MST)    F      %     mph   deg.    mph     mb.     in.     W/m2     F   
------------------------------------------------------------------------------
 273   15:20   65.5    28    2.7    17      6.3   819.9    0.00     536    56.6
 273   15:30   65.5    28    3.4   293      6.9   819.8    0.00     471    56.6
 273   15:40   65.4    28    2.8    46      5.3   819.8    0.00     403    56.7
 273   15:50   65.3    28    2.9   350      6.6   819.7    0.00     139    56.7
 273   16:00   65.3    27    2.7    56      5.2   819.6    0.00     186    56.7
 273   16:10   65.3    27    2.0    55      6.6   819.6    0.00      94    56.7
 273   16:20   65.4    26    2.2    37      4.2   819.5    0.00     200    56.8
 273   16:30   65.5    26    2.2    40      5.9   819.4    0.00     285    56.8
 273   16:40   65.9    26    1.7   347      5.2   819.4    0.00     217    56.8
 273   16:50   65.6    25    2.6    37      5.3   819.3    0.00      55    56.8
 273   17:00   65.3    25    2.4   306      4.1   819.3    0.00     125    56.8
 273   17:10   65.2    26    2.1   292      4.5   819.4    0.00      93    56.9
 273   17:20   65.1    35    2.5   258      8.8   819.4    0.00      98    56.9
 273   17:30   64.1    39    1.9   210      4.5   819.3    0.00      30    56.9
 273   17:40   62.5    42    2.0   215      4.8   819.2    0.00      23    56.9
 273   17:50   61.6    45    1.5   215      4.5   819.2    0.00      26    56.9
 273   18:00   61.6    44    1.9   207      5.0   819.2    0.00      22    56.9
 273   18:10   60.6    47    1.4   187      3.9   819.2    0.00      10    56.9
 273   18:20   59.5    49    1.9   192      7.0   819.2    0.00       5    56.9
 273   18:30   59.2    51    1.8   181      7.6   819.2    0.00       3    56.9
 273   18:40   59.0    51    2.3   184      5.6   819.3    0.00       1    57.0
 273   18:50   58.9    52    1.9   178      5.4   819.4    0.00       0    57.0
 273   19:00   58.8    51    2.6   183      6.4   819.4    0.00       0    57.0
 273   19:10   58.8    50    1.1   153      3.9   819.4    0.00       0    56.9
 273   19:20   58.7    48    1.9   102      4.1   819.4    0.00       0    56.9
 273   19:30   57.8    46    3.2   102      6.1   819.4    0.00       0    56.9
 273   19:40   56.9    47    2.1   126      4.5   819.4    0.00       0    56.9
 273   19:50   56.5    47    3.0   103      6.7   819.4    0.00       0    56.9
 273   20:00   56.8    46    4.2    93      7.1   819.4    0.00       0    56.9
 273   20:10   56.9    46    4.7    90      7.9   819.5    0.00       0    56.9
 273   20:20   57.0    47    4.9    92      7.7   819.5    0.00       0    56.9
 273   20:30   56.8    48    4.1    95      6.5   819.6    0.00       0    56.9
 273   20:40   56.4    49    4.3    93      7.2   819.6    0.00       0    56.9
 273   20:50   56.5    48    3.9    96      7.3   819.6    0.00       0    56.9
 273   21:00   56.5    48    4.1   100      8.1   819.6    0.00       0    56.8
 273   21:10   56.7    47    4.5    87      8.6   819.5    0.00       0    56.8
 273   21:20   56.1    48    5.0    91      8.8   819.5    0.00       0    56.8
 273   21:30   55.7    49    3.9    94      6.1   819.4    0.00       0    56.8
 273   21:40   55.7    48    4.6    98      9.1   819.5    0.00       0    56.8
 273   21:50   55.6    49    5.1    96      8.6   819.4    0.00       0    56.7
 273   22:00   55.3    49    5.1    93      9.8   819.4    0.00       0    56.7
 273   22:10   55.1    50    4.8   101      9.1   819.3    0.00       0    56.7
 273   22:20   54.9    50    4.2    90      6.9   819.3    0.00       0    56.7
 273   22:30   54.7    50    4.1    98      8.6   819.2    0.00       0    56.6
 273   22:40   55.0    49    4.6    96      8.6   819.2    0.00       0    56.6
 273   22:50   54.9    50    5.0    91     10.5   819.2    0.00       0    56.6
 273   23:00   54.6    50    4.1    98      8.0   819.3    0.00       0    56.6
 273   23:10   54.4    51    3.9   104      7.3   819.2    0.00       0    56.6
 273   23:20   54.2    51    3.6   106      5.8   819.2    0.00       0    56.6
 273   23:30   54.2    51    3.6   104      7.5   819.2    0.00       0    56.5
 273   23:40   53.8    52    3.9   109      6.2   819.2    0.00       0    56.5
 273   23:50   54.0    51    4.1    98      8.3   819.1    0.00       0    56.5
 274    0:00   54.0    51    4.0   104      6.1   819.1    0.00       0    56.5
 274    0:10   54.2    51    3.7   100      7.2   819.0    0.00       0    56.5
 274    0:20   54.0    51    3.6    99      6.5   819.0    0.00       0    56.5
 274    0:30   54.1    51    3.9    70      8.5   819.1    0.00       0    56.5
 274    0:40   52.7    58    4.4    35     11.2   819.5    0.00       0    56.4
 274    0:50   52.4    59    3.7    62      7.4   819.6    0.00       0    56.4
 274    1:00   53.2    58    1.4   104      3.9   819.7    0.00       0    56.4
 274    1:10   52.4    66    0.9   164      3.4   819.7    0.00       0    56.3
 274    1:20   51.5    73    0.7   185      2.2   819.7    0.01       0    56.3
 274    1:30   50.2    77    0.7   174      2.0   819.6    0.00       0    56.2
 274    1:40   49.1    78    0.1   212      1.0   819.6    0.00       0    56.2
 274    1:50   48.8    79    0.5   128      2.0   819.7    0.00       0    56.2
 274    2:00   49.5    73    1.0    78      2.6   819.8    0.00       0    56.2
 274    2:10   50.9    64    1.7    48      3.7   820.0    0.00       0    56.2
 274    2:20   50.3    68    0.4   208      1.2   819.9    0.00       0    56.2
 274    2:30   50.1    70    1.1   318      3.7   819.9    0.00       0    56.2
 274    2:40   50.0    72    2.3   289      5.4   819.9    0.00       0    56.1
 274    2:50   49.7    74    0.6   112      2.2   819.9    0.00       0    56.1
 274    3:00   49.5    77    1.0   181      2.1   819.9    0.00       0    56.1
 274    3:10   49.0    78    1.3   231      3.8   819.9    0.00       0    56.0
 274    3:20   49.1    78    2.1   279      3.8   820.1    0.00       0    56.0
 274    3:30   49.1    77    0.7   293      2.8   820.2    0.00       0    55.9
 274    3:40   48.8    78    0.9   357      1.8   820.4    0.00       0    55.9
 274    3:50   48.9    78    0.5    70      1.5   820.4    0.00       0    55.9
 274    4:00   48.8    78    0.9   105      1.8   820.4    0.00       0    55.9
 274    4:10   48.4    79    0.5   263      1.5   820.5    0.00       0    55.9
 274    4:20   48.0    81    1.4   158      3.0   820.5    0.00       0    55.8
 274    4:30   47.7    82    0.7   281      2.0   820.4    0.00       0    55.8
 274    4:40   48.1    81    2.4   316      3.5   820.6    0.00       0    55.8
 274    4:50   48.4    80    1.4   342      3.9   820.7    0.00       0    55.8
 274    5:00   48.0    82    2.3   304      4.2   820.8    0.00       0    55.7
 274    5:10   47.8    83    0.9   328      2.4   820.9    0.00       0    55.7
 274    5:20   48.0    83    2.4   291      4.3   821.3    0.02       0    55.7
 274    5:30   47.6    86    3.0   313      6.4   821.5    0.03       0    55.7
 274    5:40   46.7    89    1.3   310      4.3   821.7    0.01       0    55.6
 274    5:50   46.7    90    0.4   287      1.8   821.7    0.00       0    55.6
 274    6:00   46.8    90    0.0   148      1.0   821.9    0.00       0    55.6
 274    6:10   47.0    91    1.1    68      2.5   821.9    0.00       0    55.5
 274    6:20   47.3    91    1.3    54      2.4   821.9    0.00       0    55.5
 274    6:30   47.3    89    1.8    60      3.1   821.8    0.00       1    55.5
 274    6:40   47.4    88    1.2     4      2.8   821.9    0.00       1    55.5
 274    6:50   47.3    89    1.4     4      3.4   821.8    0.00       3    55.5
 274    7:00   47.2    90    1.6   349      3.9   821.8    0.00       8    55.4
 274    7:10   47.3    90    1.8   351      4.5   821.8    0.00      20    55.4
 274    7:20   46.9    91    4.5   336     13.2   822.2    0.00      14    55.4
 274    7:30   46.2    91    3.0    14      8.7   822.3    0.00      38    55.4
 274    7:40   45.8    90    3.6    13      8.8   822.4    0.00      20    55.4
 274    7:50   45.5    90    2.7     0      6.7   822.6    0.00      28    55.3
 274    8:00   45.5    90    2.6    10      5.4   822.8    0.00      29    55.3
 274    8:10   45.6    90    2.4    31      5.8   822.8    0.00      44    55.3
 274    8:20   45.6    90    2.3    24      5.5   822.9    0.00      65    55.3
 274    8:30   45.7    90    2.6   328      5.6   823.0    0.00      63    55.3
 274    8:40   44.9    88    3.6   340      8.2   823.2    0.00      58    55.3
 274    8:50   44.9    87    2.5   342      5.8   823.3    0.00      59    55.2
 274    9:00   45.2    87    1.4   339      3.7   823.4    0.00      75    55.2
 274    9:10   45.8    87    2.0   283      4.3   823.4    0.00     182    55.2
 274    9:20   46.7    87    1.4   272      5.6   823.4    0.00     205    55.2
 274    9:30   47.9    84    1.0    46      5.1   823.5    0.00     169    55.2
 274    9:40   47.8    80    3.1     7      8.1   823.6    0.00     196    55.2
 274    9:50   48.1    78    3.1     1      8.3   823.6    0.01     290    55.2
 274   10:00   48.6    76    3.3   353      7.8   823.6    0.00     317    55.2
 274   10:10   48.7    75    3.2     1      7.5   823.6    0.00     429    55.2
 274   10:20   49.9    72    4.1   331      8.2   823.6    0.00     687    55.3
 274   10:30   50.5    70    4.3   328      9.9   823.7    0.00     574    55.4
 274   10:40   50.7    68    4.3   350     10.0   823.7    0.00     677    55.3
 274   10:50   51.6    68    5.1   334     10.3   823.7    0.00     811    55.3
 274   11:00   51.3    67    5.0   329     11.2   823.8    0.00     568    55.3
 274   11:10   50.6    67    3.9   344      7.7   823.9    0.00     465    55.3
 274   11:20   51.2    65    5.3   355     12.6   823.9    0.00     665    55.3
 274   11:30   51.8    63    4.8   354      9.1   823.9    0.00     845    55.3
 274   11:40   51.8    62    5.2   340     12.8   823.9    0.00     511    55.3
 274   11:50   50.5    61    4.7   343     10.0   823.9    0.00     448    55.3
 274   12:00   52.1    59    5.2    37     13.2   823.8    0.00     786    55.3
 274   12:10   52.5    56    3.8    17     12.5   823.8    0.00     461    55.3
 274   12:20   52.7    56    3.5    11      9.1   823.7    0.00     746    55.3
 274   12:30   53.3    54    4.0    35      8.8   823.9    0.00     551    55.3
 274   12:40   52.7    53    4.8     2     11.8   823.8    0.00     712    55.3
 274   12:50   53.5    48    5.3    20     10.3   823.8    0.00     748    55.3
 274   13:00   53.3    48    4.7    19     11.8   823.9    0.00     706    55.4
 274   13:10   53.9    46    4.8   356     12.1   823.7    0.00     785    55.4
 274   13:20   54.0    45    4.3    11     11.6   823.7    0.00     762    55.4
 274   13:30   54.4    42    5.3     5     12.0   823.8    0.00     803    55.5
 274   13:40   54.0    42    4.3   342      9.8   823.8    0.00     730    55.5
 274   13:50   55.0    42    5.1    15     12.1   823.6    0.00     706    55.5
 274   14:00   54.8    41    4.8    23     13.1   823.7    0.00     652    55.5
 274   14:10   54.2    43    4.6     2     11.1   823.6    0.00     729    55.5
 274   14:20   54.6    41    3.8    12     10.4   823.7    0.00     697    55.6
 274   14:30   54.7    40    5.3    13     14.0   823.7    0.00     689    55.7
 274   14:40   54.4    40    4.7   344     13.2   823.6    0.00     644    55.7
 274   14:50   54.3    39    5.6   357     14.9   823.8    0.00     596    55.7
 274   15:00   54.3    38    5.2   352     14.5   823.8    0.00     596    55.7
 274   15:10   54.3    36    4.8   338     12.6   823.9    0.00     573    55.7

Return to Cedar City, Utah graphs page.


Western Regional Climate Center,wrcc@dri.edu